Time;durP1;ratioP1;P1;durP2;ratioP2;P2;SDS_P1;SDS_P2;PMS_P1;PMS_P2;Temp;Humidity;BMP_temperature;BMP_pressure;BME280_temperature;BME280_humidity;BME280_pressure;Samples;Min_cycle;Max_cycle;Signal;HPM_P1;HPM_P2
2021/06/26 00:01:03;;;;;;;4.95;2.65;;;;;;;;;;5073619;28;20025;-70
2021/06/26 00:03:30;;;;;;;6.50;2.90;;;;;;;;;;5073816;28;20044;-70
2021/06/26 00:05:57;;;;;;;6.75;2.70;;;;;;;;;;5073262;28;20158;-70
2021/06/26 00:08:24;;;;;;;3.22;2.47;;;;;;;;;;5073840;28;20074;-71
2021/06/26 00:10:50;;;;;;;4.13;2.63;;;;;;;;;;5073847;28;20039;-70
2021/06/26 00:13:16;;;;;;;4.82;2.83;;;;;;;;;;5073790;28;20027;-71
2021/06/26 00:15:43;;;;;;;7.53;2.80;;;;;;;;;;5073970;28;20055;-69
2021/06/26 00:18:09;;;;;;;6.85;3.05;;;;;;;;;;5073432;28;20079;-70
2021/06/26 00:20:35;;;;;;;3.65;2.40;;;;;;;;;;5061934;28;20029;-70
2021/06/26 00:23:01;;;;;;;3.70;2.45;;;;;;;;;;5068820;28;20020;-70
2021/06/26 00:25:27;;;;;;;8.00;3.05;;;;;;;;;;5073344;28;20027;-70
2021/06/26 00:27:54;;;;;;;6.25;3.03;;;;;;;;;;5073442;28;20107;-71
2021/06/26 00:30:20;;;;;;;6.30;2.58;;;;;;;;;;5073053;28;20433;-71
2021/06/26 00:32:47;;;;;;;6.53;2.78;;;;;;;;;;5073191;28;20023;-70
2021/06/26 00:35:13;;;;;;;8.52;3.00;;;;;;;;;;5073096;28;20025;-70
2021/06/26 00:37:40;;;;;;;6.15;2.60;;;;;;;;;;5073460;28;20021;-70
2021/06/26 00:40:06;;;;;;;5.40;2.40;;;;;;;;;;5073021;28;20070;-69
2021/06/26 00:42:33;;;;;;;6.38;2.83;;;;;;;;;;5073043;28;20032;-72
2021/06/26 00:45:00;;;;;;;7.10;3.85;;;;;;;;;;5071167;28;20157;-70
2021/06/26 00:47:26;;;;;;;5.28;3.25;;;;;;;;;;5088609;28;20025;-71
2021/06/26 00:49:52;;;;;;;4.63;2.60;;;;;;;;;;5072902;28;20028;-71
2021/06/26 00:52:18;;;;;;;9.15;2.70;;;;;;;;;;5072958;28;20073;-70
2021/06/26 00:54:45;;;;;;;7.43;2.80;;;;;;;;;;5072240;28;20052;-70
2021/06/26 00:57:11;;;;;;;6.07;2.53;;;;;;;;;;5073146;28;20070;-70
2021/06/26 00:59:38;;;;;;;10.70;3.83;;;;;;;;;;5072384;28;20030;-71
2021/06/26 01:02:06;;;;;;;5.95;3.28;;;;;;;;;;5072613;28;20021;-70
2021/06/26 01:04:33;;;;;;;6.82;3.25;;;;;;;;;;5072054;28;20498;-70
2021/06/26 01:06:59;;;;;;;6.55;2.95;;;;;;;;;;5072376;28;20028;-70
2021/06/26 01:09:25;;;;;;;5.47;2.50;;;;;;;;;;5072370;28;20063;-70
2021/06/26 01:11:57;;;;;;;11.65;3.55;;;;;;;;;;5072895;28;20029;-69
2021/06/26 01:14:24;;;;;;;5.15;2.78;;;;;;;;;;5071454;28;20020;-70
2021/06/26 01:16:50;;;;;;;6.80;2.80;;;;;;;;;;5072576;28;20036;-71
2021/06/26 01:19:16;;;;;;;7.60;3.30;;;;;;;;;;5071768;28;20031;-70
2021/06/26 01:21:43;;;;;;;3.63;2.90;;;;;;;;;;5052801;28;20029;-70
2021/06/26 01:24:09;;;;;;;7.13;3.13;;;;;;;;;;5066029;28;20032;-71
2021/06/26 01:26:36;;;;;;;7.00;2.83;;;;;;;;;;5072522;28;20029;-70
2021/06/26 01:29:08;;;;;;;6.72;2.85;;;;;;;;;;5071916;28;20033;-71
2021/06/26 01:31:34;;;;;;;5.45;2.60;;;;;;;;;;5072512;28;20028;-71
2021/06/26 01:34:00;;;;;;;9.45;3.15;;;;;;;;;;5071382;28;20031;-70
2021/06/26 01:36:26;;;;;;;7.28;3.20;;;;;;;;;;5072549;28;20089;-71
2021/06/26 01:38:53;;;;;;;11.15;3.05;;;;;;;;;;5072069;28;20032;-71
2021/06/26 01:41:19;;;;;;;5.95;3.05;;;;;;;;;;5072169;28;20048;-71
2021/06/26 01:43:46;;;;;;;6.75;3.17;;;;;;;;;;5072605;28;20056;-71
2021/06/26 01:46:12;;;;;;;4.30;2.80;;;;;;;;;;5072387;28;20482;-71
2021/06/26 01:48:38;;;;;;;7.43;4.20;;;;;;;;;;5071867;28;20498;-71
2021/06/26 01:51:04;;;;;;;5.68;2.72;;;;;;;;;;5071968;28;20043;-71
2021/06/26 01:53:30;;;;;;;12.25;3.13;;;;;;;;;;5071863;28;20032;-71
2021/06/26 01:55:56;;;;;;;5.55;2.55;;;;;;;;;;5071678;28;20063;-71
2021/06/26 01:58:24;;;;;;;7.97;3.15;;;;;;;;;;5071716;28;20044;-70
2021/06/26 02:00:50;;;;;;;5.22;3.00;;;;;;;;;;5072333;28;20024;-70
2021/06/26 02:03:16;;;;;;;9.75;2.90;;;;;;;;;;5071706;28;20028;-71
2021/06/26 02:05:42;;;;;;;4.93;2.80;;;;;;;;;;5071581;28;20047;-71
2021/06/26 02:08:08;;;;;;;3.88;2.55;;;;;;;;;;5071785;28;20094;-71
2021/06/26 02:10:34;;;;;;;4.78;2.78;;;;;;;;;;5072077;28;20020;-71
2021/06/26 02:13:00;;;;;;;6.63;2.90;;;;;;;;;;5071474;28;20043;-72
2021/06/26 02:15:27;;;;;;;6.35;3.20;;;;;;;;;;5072214;28;20028;-70
2021/06/26 02:17:53;;;;;;;7.00;2.75;;;;;;;;;;5071604;28;20516;-70
2021/06/26 02:20:19;;;;;;;5.32;2.90;;;;;;;;;;5070036;28;20020;-71
2021/06/26 02:22:45;;;;;;;4.53;2.83;;;;;;;;;;5072107;28;20445;-70
2021/06/26 02:25:13;;;;;;;3.03;2.72;;;;;;;;;;5071611;28;20078;-71
2021/06/26 02:27:39;;;;;;;6.40;2.72;;;;;;;;;;5071696;28;20521;-69
2021/06/26 02:30:06;;;;;;;3.95;2.55;;;;;;;;;;5071357;28;20096;-70
2021/06/26 02:32:32;;;;;;;4.68;2.72;;;;;;;;;;5071697;28;20039;-71
2021/06/26 02:34:59;;;;;;;3.13;2.70;;;;;;;;;;5071603;28;20021;-70
2021/06/26 02:37:25;;;;;;;4.97;3.85;;;;;;;;;;5070582;28;20388;-70
2021/06/26 02:39:51;;;;;;;5.43;3.03;;;;;;;;;;5070349;28;20067;-70
2021/06/26 02:42:17;;;;;;;7.00;3.13;;;;;;;;;;5071190;28;20044;-71
2021/06/26 02:44:44;;;;;;;17.38;3.25;;;;;;;;;;5088357;28;20024;-70
2021/06/26 02:47:10;;;;;;;4.30;2.65;;;;;;;;;;5075258;28;20025;-70
2021/06/26 02:49:36;;;;;;;6.15;2.63;;;;;;;;;;5075516;28;20028;-70
2021/06/26 02:52:02;;;;;;;4.40;3.00;;;;;;;;;;5074534;28;20426;-70
2021/06/26 02:54:28;;;;;;;3.58;2.92;;;;;;;;;;5075143;28;20045;-71
2021/06/26 02:56:54;;;;;;;4.03;2.83;;;;;;;;;;5074811;28;20029;-71
2021/06/26 02:59:20;;;;;;;4.57;3.00;;;;;;;;;;5075434;28;20103;-71
2021/06/26 03:01:46;;;;;;;4.78;2.90;;;;;;;;;;5074714;28;20028;-71
2021/06/26 03:04:12;;;;;;;7.03;2.95;;;;;;;;;;5074688;28;20074;-71
2021/06/26 03:06:38;;;;;;;5.72;3.00;;;;;;;;;;5074623;28;20039;-71
2021/06/26 03:09:04;;;;;;;4.35;2.80;;;;;;;;;;5074809;28;20159;-71
2021/06/26 03:11:30;;;;;;;4.75;3.17;;;;;;;;;;5074461;28;20108;-71
2021/06/26 03:13:57;;;;;;;4.05;2.70;;;;;;;;;;5075022;28;20028;-70
2021/06/26 03:16:23;;;;;;;4.25;3.03;;;;;;;;;;5075038;28;20028;-71
2021/06/26 03:18:49;;;;;;;5.70;3.63;;;;;;;;;;5074790;28;20032;-70
2021/06/26 03:21:15;;;;;;;4.55;2.95;;;;;;;;;;5074198;28;20056;-72
2021/06/26 03:23:41;;;;;;;5.93;2.97;;;;;;;;;;5069426;28;21592;-71
2021/06/26 03:26:08;;;;;;;5.22;3.08;;;;;;;;;;5073164;28;20051;-70
2021/06/26 03:28:35;;;;;;;4.50;3.28;;;;;;;;;;5074278;28;20032;-71
2021/06/26 03:31:01;;;;;;;6.35;3.25;;;;;;;;;;5074408;28;20025;-71
2021/06/26 03:33:27;;;;;;;4.68;3.33;;;;;;;;;;5074188;28;20025;-71
2021/06/26 03:35:54;;;;;;;5.78;3.33;;;;;;;;;;5074737;28;20029;-71
2021/06/26 03:38:20;;;;;;;6.75;2.92;;;;;;;;;;5073766;28;20095;-71
2021/06/26 03:40:46;;;;;;;9.15;4.10;;;;;;;;;;5074420;28;20035;-71
2021/06/26 03:43:13;;;;;;;5.57;3.30;;;;;;;;;;5074441;28;20593;-73
2021/06/26 03:45:39;;;;;;;6.57;3.20;;;;;;;;;;5074556;28;20030;-70
2021/06/26 03:48:05;;;;;;;5.57;3.53;;;;;;;;;;5073587;28;20024;-70
2021/06/26 03:50:33;;;;;;;5.90;3.90;;;;;;;;;;5074172;28;20021;-71
2021/06/26 03:52:59;;;;;;;4.70;3.42;;;;;;;;;;5073894;28;20479;-71
2021/06/26 03:55:26;;;;;;;5.18;3.35;;;;;;;;;;5071864;28;20075;-70
2021/06/26 03:57:52;;;;;;;9.30;3.47;;;;;;;;;;5073940;28;20028;-71
2021/06/26 04:00:18;;;;;;;8.52;3.40;;;;;;;;;;5073622;28;20394;-71
2021/06/26 04:02:44;;;;;;;5.90;3.30;;;;;;;;;;5074032;28;20060;-70
2021/06/26 04:05:10;;;;;;;7.45;3.72;;;;;;;;;;5073283;28;20031;-71
2021/06/26 04:07:36;;;;;;;5.47;3.70;;;;;;;;;;5072641;28;20025;-70
2021/06/26 04:10:03;;;;;;;4.22;3.53;;;;;;;;;;5072204;28;20028;-71
2021/06/26 04:12:30;;;;;;;5.43;3.33;;;;;;;;;;5073726;28;20471;-71
2021/06/26 04:14:56;;;;;;;6.35;3.38;;;;;;;;;;5074129;28;20031;-71
2021/06/26 04:17:22;;;;;;;4.07;3.47;;;;;;;;;;5073946;28;20107;-71
2021/06/26 04:19:48;;;;;;;4.38;3.35;;;;;;;;;;5072645;28;20028;-71
2021/06/26 04:22:14;;;;;;;5.57;4.18;;;;;;;;;;5072760;28;20032;-71
2021/06/26 04:24:40;;;;;;;4.55;3.50;;;;;;;;;;5073476;28;20483;-71
2021/06/26 04:27:07;;;;;;;5.35;3.20;;;;;;;;;;5073499;28;20032;-71
2021/06/26 04:29:33;;;;;;;5.05;2.97;;;;;;;;;;5072928;28;20076;-71
2021/06/26 04:31:59;;;;;;;5.38;3.03;;;;;;;;;;5068476;28;20032;-71
2021/06/26 04:34:26;;;;;;;4.20;2.85;;;;;;;;;;5072308;28;20017;-71
2021/06/26 04:36:53;;;;;;;8.88;5.05;;;;;;;;;;5072781;28;20032;-71
2021/06/26 04:39:19;;;;;;;7.05;3.10;;;;;;;;;;5073052;28;20029;-70
2021/06/26 04:41:45;;;;;;;6.72;4.45;;;;;;;;;;5073130;28;20028;-70
2021/06/26 04:44:12;;;;;;;4.07;2.92;;;;;;;;;;5073299;28;20475;-72
2021/06/26 04:46:38;;;;;;;4.32;3.05;;;;;;;;;;5072527;28;20482;-71
2021/06/26 04:49:07;;;;;;;8.27;3.45;;;;;;;;;;5074340;28;20043;-71
2021/06/26 04:51:35;;;;;;;5.30;3.22;;;;;;;;;;5072569;28;20510;-71
2021/06/26 04:54:01;;;;;;;3.83;3.10;;;;;;;;;;5072702;28;20475;-71
2021/06/26 04:56:27;;;;;;;4.25;3.25;;;;;;;;;;5072653;28;20036;-71
2021/06/26 04:58:54;;;;;;;10.18;4.35;;;;;;;;;;5073160;28;20033;-70
2021/06/26 05:01:20;;;;;;;4.43;3.13;;;;;;;;;;5072168;28;20038;-71
2021/06/26 05:03:46;;;;;;;8.40;3.25;;;;;;;;;;5072368;28;20495;-71
2021/06/26 05:06:12;;;;;;;5.55;3.00;;;;;;;;;;5072720;28;20067;-70
2021/06/26 05:08:38;;;;;;;4.40;3.25;;;;;;;;;;5071971;28;20025;-71
2021/06/26 05:11:06;;;;;;;5.45;2.78;;;;;;;;;;5071897;28;20095;-71
2021/06/26 05:13:32;;;;;;;5.78;2.95;;;;;;;;;;5069043;28;20029;-71
2021/06/26 05:15:58;;;;;;;3.97;2.83;;;;;;;;;;5072336;28;20048;-70
2021/06/26 05:18:27;;;;;;;9.80;3.28;;;;;;;;;;5072399;28;20025;-72
2021/06/26 05:20:54;;;;;;;5.20;2.90;;;;;;;;;;5071842;28;20046;-71
2021/06/26 05:23:20;;;;;;;5.65;2.80;;;;;;;;;;5072632;28;20039;-70
2021/06/26 05:25:46;;;;;;;2.97;2.45;;;;;;;;;;5071726;28;20039;-73
2021/06/26 05:28:12;;;;;;;4.97;2.60;;;;;;;;;;5071578;28;20101;-72
2021/06/26 05:30:39;;;;;;;3.33;2.85;;;;;;;;;;5072007;28;20024;-72
2021/06/26 05:33:05;;;;;;;5.65;2.70;;;;;;;;;;5072163;28;20031;-72
2021/06/26 05:35:31;;;;;;;4.15;2.65;;;;;;;;;;5071954;28;20036;-72
2021/06/26 05:37:57;;;;;;;7.50;2.72;;;;;;;;;;5072382;28;20020;-72
2021/06/26 05:40:24;;;;;;;6.68;2.95;;;;;;;;;;5072436;28;20028;-72
2021/06/26 05:42:50;;;;;;;5.43;3.88;;;;;;;;;;5072018;28;20021;-72
2021/06/26 05:45:16;;;;;;;4.03;2.92;;;;;;;;;;5071581;28;20016;-73
2021/06/26 05:47:42;;;;;;;3.28;2.78;;;;;;;;;;5071723;28;20309;-71
2021/06/26 05:50:09;;;;;;;4.63;3.00;;;;;;;;;;5070841;28;20025;-73
2021/06/26 05:52:44;;;;;;;5.97;3.10;;;;;;;;;;5071906;28;20043;-70
2021/06/26 05:55:10;;;;;;;;;;;;;;;;;;5072276;28;20067;-71
2021/06/26 05:57:36;;;;;;;;;;;;;;;;;;5071993;28;20649;-72
2021/06/26 06:00:02;;;;;;;;;;;;;;;;;;5072552;28;19946;-71
2021/06/26 06:02:28;;;;;;;;;;;;;;;;;;5071584;28;19955;-71
2021/06/26 06:04:54;;;;;;;;;;;;;;;;;;5071526;28;19908;-71
2021/06/26 06:07:20;;;;;;;;;;;;;;;;;;5072375;28;19920;-72
2021/06/26 06:09:46;;;;;;;;;;;;;;;;;;5072103;28;19937;-71
2021/06/26 06:12:11;;;;;;;;;;;;;;;;;;5072498;28;19909;-71
2021/06/26 06:14:37;;;;;;;;;;;;;;;;;;5072313;28;19911;-71
2021/06/26 06:17:04;;;;;;;5.57;3.70;;;;;;;;;;5072004;28;19965;-71
2021/06/26 06:19:30;;;;;;;4.78;3.17;;;;;;;;;;5072500;28;20031;-71
2021/06/26 06:21:56;;;;;;;6.47;3.63;;;;;;;;;;5075710;28;20113;-71
2021/06/26 06:24:22;;;;;;;7.72;3.47;;;;;;;;;;5075787;28;20047;-71
2021/06/26 06:26:48;;;;;;;5.97;3.72;;;;;;;;;;5076078;28;20029;-71
2021/06/26 06:29:14;;;;;;;5.22;2.65;;;;;;;;;;5074883;28;20021;-72
2021/06/26 06:31:40;;;;;;;2.90;2.42;;;;;;;;;;5075410;28;20028;-71
2021/06/26 06:34:06;;;;;;;3.50;2.85;;;;;;;;;;5075580;28;20080;-72
2021/06/26 06:36:32;;;;;;;3.17;2.65;;;;;;;;;;5074801;28;20038;-71
2021/06/26 06:38:58;;;;;;;5.07;2.55;;;;;;;;;;5074847;28;20020;-70
2021/06/26 06:41:24;;;;;;;4.07;2.40;;;;;;;;;;5075385;28;20071;-70
2021/06/26 06:43:50;;;;;;;6.82;2.42;;;;;;;;;;5074889;28;20425;-71
2021/06/26 06:46:17;;;;;;;3.05;2.15;;;;;;;;;;5074405;28;20436;-71
2021/06/26 06:48:43;;;;;;;3.55;2.15;;;;;;;;;;5075289;28;20099;-70
2021/06/26 06:51:09;;;;;;;4.50;2.25;;;;;;;;;;5074100;28;20399;-71
2021/06/26 06:53:35;;;;;;;3.70;2.35;;;;;;;;;;5091031;28;20025;-71
2021/06/26 06:56:01;;;;;;;3.38;2.25;;;;;;;;;;5075012;28;20057;-71
2021/06/26 06:58:27;;;;;;;3.83;2.38;;;;;;;;;;5074101;28;20031;-71
2021/06/26 07:00:53;;;;;;;2.53;2.33;;;;;;;;;;5075433;28;20107;-72
2021/06/26 07:03:19;;;;;;;3.35;2.22;;;;;;;;;;5076084;28;20035;-71
2021/06/26 07:05:45;;;;;;;4.63;2.50;;;;;;;;;;5074949;28;21984;-71
2021/06/26 07:08:11;;;;;;;2.55;2.20;;;;;;;;;;5075351;28;20047;-71
2021/06/26 07:10:37;;;;;;;3.55;2.53;;;;;;;;;;5075051;28;20047;-72
2021/06/26 07:13:04;;;;;;;4.10;2.65;;;;;;;;;;5075117;28;20021;-71
2021/06/26 07:15:31;;;;;;;5.10;2.70;;;;;;;;;;5075046;28;20035;-71
2021/06/26 07:17:57;;;;;;;3.58;2.67;;;;;;;;;;5073188;28;20032;-71
2021/06/26 07:20:23;;;;;;;4.10;2.50;;;;;;;;;;5073101;28;20120;-71
2021/06/26 07:22:49;;;;;;;4.88;2.60;;;;;;;;;;5073183;28;20016;-71
2021/06/26 07:25:16;;;;;;;3.55;2.40;;;;;;;;;;5073560;28;20059;-71
2021/06/26 07:27:42;;;;;;;5.07;2.67;;;;;;;;;;5073635;28;20024;-69
2021/06/26 07:30:08;;;;;;;3.78;2.50;;;;;;;;;;5073545;28;20062;-70
2021/06/26 07:32:34;;;;;;;3.45;2.75;;;;;;;;;;5073922;28;20028;-69
2021/06/26 07:35:00;;;;;;;2.40;2.08;;;;;;;;;;5074280;28;20028;-70
2021/06/26 07:37:26;;;;;;;5.25;3.00;;;;;;;;;;5073766;28;20028;-70
2021/06/26 07:39:52;;;;;;;4.20;2.10;;;;;;;;;;5074123;28;20032;-70
2021/06/26 07:42:19;;;;;;;3.63;2.22;;;;;;;;;;5073589;28;20029;-69
2021/06/26 07:44:45;;;;;;;3.38;2.60;;;;;;;;;;5074340;28;20032;-70
2021/06/26 07:47:11;;;;;;;3.45;2.38;;;;;;;;;;5073962;28;20390;-70
2021/06/26 07:49:37;;;;;;;3.33;2.97;;;;;;;;;;5080428;28;20020;-71
2021/06/26 07:52:03;;;;;;;2.55;2.22;;;;;;;;;;5094670;28;20026;-70
2021/06/26 07:54:29;;;;;;;3.95;2.40;;;;;;;;;;5082505;28;20070;-70
2021/06/26 07:56:55;;;;;;;2.75;2.10;;;;;;;;;;5073060;28;20031;-70
2021/06/26 07:59:21;;;;;;;4.13;2.42;;;;;;;;;;5070603;28;20107;-71
2021/06/26 08:01:47;;;;;;;4.60;2.30;;;;;;;;;;5073634;28;20032;-72
2021/06/26 08:04:13;;;;;;;4.40;2.72;;;;;;;;;;5073704;28;20028;-70
2021/06/26 08:06:39;;;;;;;4.35;2.10;;;;;;;;;;5074023;28;20020;-70
2021/06/26 08:09:06;;;;;;;3.55;3.17;;;;;;;;;;5073525;28;20027;-71
2021/06/26 08:11:32;;;;;;;2.60;2.38;;;;;;;;;;5073742;28;20024;-70
2021/06/26 08:13:58;;;;;;;3.20;2.72;;;;;;;;;;5073123;28;20082;-71
2021/06/26 08:16:27;;;;;;;4.00;2.30;;;;;;;;;;5072818;28;20060;-71
2021/06/26 08:18:53;;;;;;;3.13;2.22;;;;;;;;;;5073083;28;20077;-71
2021/06/26 08:21:20;;;;;;;3.58;2.33;;;;;;;;;;5072204;28;20035;-71
2021/06/26 08:23:46;;;;;;;5.38;2.05;;;;;;;;;;5073145;28;20368;-72
2021/06/26 08:26:12;;;;;;;3.22;2.10;;;;;;;;;;5072377;28;20035;-71
2021/06/26 08:28:38;;;;;;;4.07;2.75;;;;;;;;;;5073692;28;20021;-72
2021/06/26 08:31:04;;;;;;;3.92;2.40;;;;;;;;;;5072103;28;20024;-71
2021/06/26 08:33:31;;;;;;;3.42;2.22;;;;;;;;;;5072775;28;20031;-72
2021/06/26 08:35:57;;;;;;;2.28;2.00;;;;;;;;;;5073154;28;20032;-72
2021/06/26 08:38:23;;;;;;;2.45;1.95;;;;;;;;;;5071907;28;20556;-71
2021/06/26 08:40:53;;;;;;;3.22;1.90;;;;;;;;;;5072342;28;20043;-71
2021/06/26 08:43:19;;;;;;;1.88;1.73;;;;;;;;;;5072094;28;20079;-71
2021/06/26 08:45:45;;;;;;;2.08;1.60;;;;;;;;;;5072278;28;20028;-72
2021/06/26 08:48:12;;;;;;;1.67;1.58;;;;;;;;;;5071623;28;20368;-71
2021/06/26 08:50:39;;;;;;;2.15;1.63;;;;;;;;;;5072703;28;20407;-72
2021/06/26 08:53:05;;;;;;;4.43;2.05;;;;;;;;;;5072509;28;20056;-72
2021/06/26 08:55:31;;;;;;;3.83;1.90;;;;;;;;;;5072658;28;20055;-72
2021/06/26 08:57:57;;;;;;;3.55;1.70;;;;;;;;;;5073506;28;20024;-72
2021/06/26 09:00:25;;;;;;;2.78;1.80;;;;;;;;;;5073258;28;20012;-72
2021/06/26 09:02:51;;;;;;;1.80;1.52;;;;;;;;;;5072676;28;20081;-72
2021/06/26 09:05:24;;;;;;;2.08;1.73;;;;;;;;;;5072470;28;20024;-73
2021/06/26 09:07:50;;;;;;;3.30;2.05;;;;;;;;;;5072510;28;20048;-72
2021/06/26 09:10:17;;;;;;;1.65;1.55;;;;;;;;;;5071772;28;20466;-72
2021/06/26 09:12:45;;;;;;;1.88;1.63;;;;;;;;;;5072661;28;20027;-72
2021/06/26 09:15:20;;;;;;;3.60;1.75;;;;;;;;;;5072803;28;20048;-72
2021/06/26 09:17:46;;;;;;;3.13;1.40;;;;;;;;;;5072676;28;20025;-72
2021/06/26 09:20:13;;;;;;;1.67;1.52;;;;;;;;;;5065116;28;20401;-71
2021/06/26 09:22:40;;;;;;;2.42;1.50;;;;;;;;;;5055284;28;20032;-72
2021/06/26 09:25:21;;;;;;;3.90;1.58;;;;;;;;;;5072847;28;20109;-71
2021/06/26 09:27:47;;;;;;;1.90;1.70;;;;;;;;;;5088167;28;20044;-72
2021/06/26 09:30:13;;;;;;;2.08;1.70;;;;;;;;;;5072763;28;20051;-72
2021/06/26 09:32:44;;;;;;;2.45;2.15;;;;;;;;;;5072456;28;20062;-72
2021/06/26 09:35:15;;;;;;;1.92;1.75;;;;;;;;;;5071209;28;20028;-73
2021/06/26 09:37:41;;;;;;;2.10;1.60;;;;;;;;;;5072258;28;20024;-73
2021/06/26 09:40:07;;;;;;;2.05;1.58;;;;;;;;;;5072732;28;20025;-72
2021/06/26 09:42:39;;;;;;;1.70;1.60;;;;;;;;;;5072290;28;20021;-72
2021/06/26 09:45:13;;;;;;;2.05;1.63;;;;;;;;;;5072622;28;20070;-72
2021/06/26 09:47:39;;;;;;;1.90;1.80;;;;;;;;;;5072181;28;20135;-72
2021/06/26 09:50:17;;;;;;;2.10;1.90;;;;;;;;;;5072492;28;20032;-72
2021/06/26 09:52:43;;;;;;;3.28;2.30;;;;;;;;;;5071444;28;20027;-73
2021/06/26 09:55:13;;;;;;;1.80;1.70;;;;;;;;;;5070773;28;20072;-72
2021/06/26 09:57:39;;;;;;;2.20;1.98;;;;;;;;;;5071826;28;20032;-72
2021/06/26 10:00:06;;;;;;;2.28;1.50;;;;;;;;;;5071883;28;20039;-72
2021/06/26 10:02:33;;;;;;;3.00;1.95;;;;;;;;;;5071629;28;20124;-73
2021/06/26 10:05:00;;;;;;;3.08;1.70;;;;;;;;;;5071914;28;20440;-72
2021/06/26 10:07:26;;;;;;;2.90;1.77;;;;;;;;;;5071857;28;20028;-72
2021/06/26 10:09:52;;;;;;;6.43;2.10;;;;;;;;;;5070930;28;20033;-72
2021/06/26 10:12:19;;;;;;;3.75;1.90;;;;;;;;;;5069862;28;20058;-73
2021/06/26 10:14:46;;;;;;;3.80;1.80;;;;;;;;;;5070485;28;20025;-73
2021/06/26 10:17:12;;;;;;;4.20;2.05;;;;;;;;;;5071417;28;20033;-72
2021/06/26 10:19:38;;;;;;;2.45;1.80;;;;;;;;;;5070850;28;20032;-73
2021/06/26 10:22:05;;;;;;;3.25;2.10;;;;;;;;;;5070748;28;20479;-72
2021/06/26 10:24:31;;;;;;;2.40;1.63;;;;;;;;;;5070880;28;20483;-67
2021/06/26 10:26:57;;;;;;;3.55;2.00;;;;;;;;;;5071122;28;20080;-72
2021/06/26 10:29:32;;;;;;;2.05;1.80;;;;;;;;;;5070693;28;20483;-73
2021/06/26 10:32:08;;;;;;;2.28;1.80;;;;;;;;;;5071974;28;20025;-73
2021/06/26 10:34:40;;;;;;;2.83;1.90;;;;;;;;;;5051911;28;20021;-73
2021/06/26 10:37:13;;;;;;;4.47;2.35;;;;;;;;;;5056278;28;20110;-72
2021/06/26 10:39:39;;;;;;;2.58;2.22;;;;;;;;;;5071740;28;20028;-72
2021/06/26 10:42:06;;;;;;;3.60;1.80;;;;;;;;;;5070678;28;20032;-72
2021/06/26 10:44:39;;;;;;;3.28;1.77;;;;;;;;;;5071458;28;20086;-72
2021/06/26 10:47:05;;;;;;;2.30;1.60;;;;;;;;;;5070917;28;20078;-72
2021/06/26 10:49:31;;;;;;;2.40;1.80;;;;;;;;;;5070622;28;20428;-72
2021/06/26 10:52:08;;;;;;;2.05;1.70;;;;;;;;;;5078809;28;20093;-72
2021/06/26 10:54:35;;;;;;;1.90;1.70;;;;;;;;;;5080873;28;20045;-73
2021/06/26 10:57:05;;;;;;;2.25;1.70;;;;;;;;;;5070787;28;20025;-72
2021/06/26 10:59:31;;;;;;;2.58;1.90;;;;;;;;;;5070376;28;20028;-73
2021/06/26 11:01:59;;;;;;;2.88;1.88;;;;;;;;;;5070203;28;20025;-71
2021/06/26 11:04:27;;;;;;;1.90;1.80;;;;;;;;;;5069218;28;20028;-72
2021/06/26 11:07:09;;;;;;;2.70;1.60;;;;;;;;;;5073569;28;20491;-73
2021/06/26 11:09:36;;;;;;;2.72;1.70;;;;;;;;;;5074576;28;20052;-72
2021/06/26 11:12:13;;;;;;;2.72;1.70;;;;;;;;;;5073867;28;20079;-73
2021/06/26 11:14:52;;;;;;;1.70;1.60;;;;;;;;;;5073326;28;20032;-71
2021/06/26 11:17:21;;;;;;;2.05;1.70;;;;;;;;;;5055062;28;20029;-72
2021/06/26 11:19:47;;;;;;;2.95;1.95;;;;;;;;;;5067732;28;20029;-72
2021/06/26 11:22:14;;;;;;;3.35;1.90;;;;;;;;;;5064411;28;20024;-72
2021/06/26 11:24:45;;;;;;;2.95;1.80;;;;;;;;;;5074673;28;20056;-71
2021/06/26 11:27:14;;;;;;;2.35;1.63;;;;;;;;;;5074205;28;20025;-71
2021/06/26 11:29:42;;;;;;;3.13;1.67;;;;;;;;;;5074399;28;20020;-72
2021/06/26 11:32:20;;;;;;;1.80;1.70;;;;;;;;;;5074365;28;20071;-71
2021/06/26 11:34:53;;;;;;;3.28;2.00;;;;;;;;;;5074165;28;20021;-72
2021/06/26 11:37:19;;;;;;;2.20;1.80;;;;;;;;;;5073614;28;20024;-72
2021/06/26 11:39:45;;;;;;;3.03;2.00;;;;;;;;;;5074262;28;20028;-72
2021/06/26 11:42:18;;;;;;;10.32;3.78;;;;;;;;;;5074361;28;20040;-72
2021/06/26 11:44:44;;;;;;;3.30;2.30;;;;;;;;;;5087362;28;20032;-71
2021/06/26 11:47:11;;;;;;;3.90;2.83;;;;;;;;;;5073155;28;20031;-72
2021/06/26 11:49:43;;;;;;;1.92;1.70;;;;;;;;;;5071801;28;20522;-71
2021/06/26 11:52:11;;;;;;;1.50;1.40;;;;;;;;;;5073665;28;20073;-74
2021/06/26 11:54:37;;;;;;;6.57;2.25;;;;;;;;;;5073994;28;20049;-71
2021/06/26 11:57:05;;;;;;;2.22;1.90;;;;;;;;;;5074153;28;20392;-72
2021/06/26 11:59:42;;;;;;;2.00;1.65;;;;;;;;;;5073979;28;20052;-71
2021/06/26 12:02:08;;;;;;;2.47;1.70;;;;;;;;;;5073550;28;20025;-72
2021/06/26 12:04:34;;;;;;;3.42;1.70;;;;;;;;;;5073978;28;20027;-73
2021/06/26 12:07:00;;;;;;;3.38;1.85;;;;;;;;;;5073444;28;20471;-72
2021/06/26 12:09:27;;;;;;;4.28;3.38;;;;;;;;;;5073362;28;20028;-72
2021/06/26 12:11:56;;;;;;;3.28;2.10;;;;;;;;;;5073904;28;20054;-72
2021/06/26 12:14:26;;;;;;;5.22;2.60;;;;;;;;;;5073983;28;20070;-71
2021/06/26 12:16:53;;;;;;;2.72;1.88;;;;;;;;;;5073050;28;20127;-72
2021/06/26 12:19:29;;;;;;;6.40;1.65;;;;;;;;;;5073195;28;20103;-70
2021/06/26 12:21:55;;;;;;;3.33;1.83;;;;;;;;;;5058769;28;20027;-72
2021/06/26 12:24:26;;;;;;;2.05;1.67;;;;;;;;;;5073463;28;20514;-72
2021/06/26 12:27:06;;;;;;;2.97;1.92;;;;;;;;;;5073476;28;20036;-72
2021/06/26 12:29:32;;;;;;;2.40;1.70;;;;;;;;;;5073484;28;20032;-71
2021/06/26 12:31:58;;;;;;;2.85;1.90;;;;;;;;;;5072967;28;20042;-72
2021/06/26 12:34:24;;;;;;;2.78;1.80;;;;;;;;;;5073338;28;20020;-71
2021/06/26 12:36:51;;;;;;;2.53;1.60;;;;;;;;;;5073214;28;20047;-71
2021/06/26 12:39:23;;;;;;;3.83;1.80;;;;;;;;;;5073332;28;20149;-72
2021/06/26 12:42:18;;;;;;;1.73;1.63;;;;;;;;;;5073045;28;20024;-72
2021/06/26 12:44:54;;;;;;;3.60;3.30;;;;;;;;;;5068434;28;20048;-71
2021/06/26 12:47:21;;;;;;;3.60;1.83;;;;;;;;;;5072494;28;20025;-72
2021/06/26 12:49:52;;;;;;;2.15;1.95;;;;;;;;;;5071210;28;20478;-72
2021/06/26 12:52:18;;;;;;;1.90;1.67;;;;;;;;;;5069042;28;20024;-72
2021/06/26 12:54:50;;;;;;;1.80;1.70;;;;;;;;;;5072851;28;20383;-71
2021/06/26 12:57:16;;;;;;;4.00;2.03;;;;;;;;;;5072707;28;20387;-72
2021/06/26 12:59:42;;;;;;;1.73;1.63;;;;;;;;;;5072828;28;20483;-73
2021/06/26 13:02:09;;;;;;;3.17;1.90;;;;;;;;;;5072341;28;20028;-72
2021/06/26 13:04:38;;;;;;;2.00;1.80;;;;;;;;;;5072740;28;20040;-71
2021/06/26 13:07:04;;;;;;;2.65;2.25;;;;;;;;;;5072178;28;20116;-71
2021/06/26 13:09:33;;;;;;;2.80;2.00;;;;;;;;;;5072666;28;20029;-72
2021/06/26 13:12:08;;;;;;;2.78;2.00;;;;;;;;;;5071963;28;20013;-71
2021/06/26 13:14:34;;;;;;;;;;;;;;;;;;5072760;28;20025;-72
2021/06/26 13:17:00;;;;;;;3.15;2.10;;;;;;;;;;5071883;28;19908;-72
2021/06/26 13:19:26;;;;;;;4.32;1.90;;;;;;;;;;5069688;28;20139;-72
2021/06/26 13:21:53;;;;;;;3.28;2.10;;;;;;;;;;5071735;28;20033;-73
2021/06/26 13:24:20;;;;;;;2.20;2.00;;;;;;;;;;5063580;28;20387;-72
2021/06/26 13:26:46;;;;;;;2.67;1.77;;;;;;;;;;5072544;28;20020;-73
2021/06/26 13:29:12;;;;;;;2.30;2.10;;;;;;;;;;5071201;28;20687;-72
2021/06/26 13:31:38;;;;;;;2.08;1.88;;;;;;;;;;5071916;28;20116;-72
2021/06/26 13:34:04;;;;;;;2.65;1.88;;;;;;;;;;5072686;28;20016;-72
2021/06/26 13:36:31;;;;;;;2.17;1.85;;;;;;;;;;5072182;28;20509;-72
2021/06/26 13:38:57;;;;;;;3.95;1.92;;;;;;;;;;5072581;28;20028;-71
2021/06/26 13:41:23;;;;;;;1.70;1.60;;;;;;;;;;5072297;28;20040;-72
2021/06/26 13:43:49;;;;;;;2.13;1.60;;;;;;;;;;5072343;28;20086;-71
2021/06/26 13:46:16;;;;;;;2.70;1.95;;;;;;;;;;5072147;28;20086;-72
2021/06/26 13:48:42;;;;;;;1.77;1.63;;;;;;;;;;5072227;28;20020;-72
2021/06/26 13:51:08;;;;;;;2.30;1.88;;;;;;;;;;5072253;28;20414;-72
2021/06/26 13:53:34;;;;;;;2.00;1.70;;;;;;;;;;5072527;28;20479;-72
2021/06/26 13:56:00;;;;;;;2.50;1.70;;;;;;;;;;5071846;28;20622;-72
2021/06/26 13:58:26;;;;;;;1.83;1.63;;;;;;;;;;5072192;28;20392;-72
2021/06/26 14:00:53;;;;;;;6.35;2.10;;;;;;;;;;5071796;28;20025;-70
2021/06/26 14:03:19;;;;;;;2.58;1.70;;;;;;;;;;5071853;28;20475;-72
2021/06/26 14:05:45;;;;;;;1.75;1.65;;;;;;;;;;5071987;28;20051;-72
2021/06/26 14:08:11;;;;;;;2.47;1.65;;;;;;;;;;5072036;28;20024;-71
2021/06/26 14:10:38;;;;;;;2.67;1.73;;;;;;;;;;5072370;28;20031;-71
2021/06/26 14:13:05;;;;;;;2.78;1.85;;;;;;;;;;5071853;28;20073;-72
2021/06/26 14:15:32;;;;;;;2.55;1.77;;;;;;;;;;5071939;28;20047;-72
2021/06/26 14:17:58;;;;;;;2.40;2.20;;;;;;;;;;5071971;28;20031;-72
2021/06/26 14:20:24;;;;;;;1.92;1.70;;;;;;;;;;5062780;28;20032;-71
2021/06/26 14:22:50;;;;;;;2.00;1.83;;;;;;;;;;5058897;28;20024;-72
2021/06/26 14:25:17;;;;;;;2.03;1.50;;;;;;;;;;5071673;28;20025;-71
2021/06/26 14:27:43;;;;;;;2.28;2.08;;;;;;;;;;5071601;28;20119;-72
2021/06/26 14:30:10;;;;;;;2.15;1.95;;;;;;;;;;5070490;28;20032;-72
2021/06/26 14:32:37;;;;;;;2.33;2.00;;;;;;;;;;5072040;28;20048;-71
2021/06/26 14:35:04;;;;;;;1.85;1.70;;;;;;;;;;5071742;28;20107;-71
2021/06/26 14:37:30;;;;;;;2.67;1.92;;;;;;;;;;5072019;28;20107;-72
2021/06/26 14:39:56;;;;;;;2.22;1.73;;;;;;;;;;5070438;28;20082;-72
2021/06/26 14:42:22;;;;;;;2.63;1.80;;;;;;;;;;5075472;28;20072;-72
2021/06/26 14:44:49;;;;;;;2.95;1.65;;;;;;;;;;5075492;28;20028;-71